Station History

Weather Underground - logo

Station Historical Data
Daily Summary for November 24, 2017 Units:  English    Metric   Both
« Previous Day
Next Day »
Daily Weekly Monthly Yearly Custom
  High: Low: Average:
Temperature: 72.5 °F 49.3 °F 59 °F
Dew Point: 58.8 °F 47.5 °F 53.3 °F
Humidity: 95 % 60 % 83 %
Wind Speed: 3.5 mph 0.0 mph 0.5 mph
Wind Gust: 3.5 mph - -
Wind:- - South
Pressure: 30.10 in 29.98 in -
Precipitation: 0.00 in    
Historical Graphs
 
 
Tabular Data for November 24, 2017
Time Temperature Dew Point Pressure Wind Wind Speed Wind Gust Humidity Rainfall Rate (Hourly)
00:01 52.0 °F 49.7 °F 30.08 in Calm     92 % 0.00 in
00:10 51.9 °F 49.9 °F 30.08 in Calm     93 % 0.00 in
00:17 52.1 °F 50.1 °F 30.08 in Calm     93 % 0.00 in
00:22 52.2 °F 50.2 °F 30.08 in Calm     93 % 0.00 in
00:27 52.3 °F 50.3 °F 30.08 in Calm     93 % 0.00 in
00:37 52.4 °F 50.4 °F 30.07 in Calm     93 % 0.00 in
00:42 52.4 °F 50.4 °F 30.08 in Calm     93 % 0.00 in
00:47 52.4 °F 50.4 °F 30.08 in Calm     93 % 0.00 in
00:52 52.1 °F 49.8 °F 30.08 in Calm     92 % 0.00 in
00:57 51.9 °F 49.9 °F 30.08 in Calm     93 % 0.00 in
01:02 51.7 °F 49.7 °F 30.08 in Calm     93 % 0.00 in
01:07 51.7 °F 49.7 °F 30.08 in Calm     93 % 0.00 in
01:17 51.5 °F 49.5 °F 30.09 in Calm     93 % 0.00 in
01:22 51.5 °F 49.5 °F 30.08 in Calm     93 % 0.00 in
01:28 51.6 °F 49.6 °F 30.08 in Calm     93 % 0.00 in
01:38 52.2 °F 50.2 °F 30.08 in ESE 1.2 mph   93 % 0.00 in
01:43 52.6 °F 50.6 °F 30.07 in ESE 1.2 mph   93 % 0.00 in
01:48 52.8 °F 50.5 °F 30.07 in Calm     92 % 0.00 in
01:53 53.0 °F 50.7 °F 30.07 in Calm   0.3 mph 92 % 0.00 in
01:58 53.0 °F 50.4 °F 30.07 in Calm     91 % 0.00 in
02:03 52.6 °F 50.0 °F 30.08 in Calm     91 % 0.00 in
02:08 52.5 °F 49.9 °F 30.08 in Calm     91 % 0.00 in
02:09 52.4 °F 49.8 °F 30.08 in Calm     91 % 0.00 in
02:14 52.3 °F 50.0 °F 30.08 in Calm     92 % 0.00 in
02:19 52.4 °F 50.1 °F 30.08 in Calm     92 % 0.00 in
02:24 52.4 °F 49.8 °F 30.08 in Calm     91 % 0.00 in
02:29 52.5 °F 50.2 °F 30.07 in East 1.2 mph 1.2 mph 92 % 0.00 in
02:34 52.7 °F 50.1 °F 30.07 in East 1.2 mph   91 % 0.00 in
02:39 52.8 °F 50.2 °F 30.07 in East 1.2 mph 1.2 mph 91 % 0.00 in
02:44 52.8 °F 50.2 °F 30.07 in East 1.2 mph 1.2 mph 91 % 0.00 in
02:54 52.0 °F 49.5 °F 30.07 in Calm     91 % 0.00 in
02:59 51.7 °F 49.2 °F 30.07 in Calm     91 % 0.00 in
03:00 51.7 °F 49.2 °F 30.07 in Calm     91 % 0.00 in
03:05 51.5 °F 49.3 °F 30.06 in Calm     92 % 0.00 in
03:10 51.4 °F 49.2 °F 30.06 in Calm     92 % 0.00 in
03:15 51.6 °F 49.6 °F 30.07 in Calm     93 % 0.00 in
03:20 51.4 °F 49.2 °F 30.06 in Calm     92 % 0.00 in
03:25 51.1 °F 48.9 °F 30.06 in Calm     92 % 0.00 in
03:30 51.2 °F 49.2 °F 30.07 in Calm     93 % 0.00 in
03:35 51.3 °F 49.3 °F 30.07 in Calm     93 % 0.00 in
03:40 51.0 °F 49.0 °F 30.06 in Calm     93 % 0.00 in
03:45 51.0 °F 49.0 °F 30.07 in Calm     93 % 0.00 in
03:50 50.8 °F 48.8 °F 30.08 in East 1.2 mph   93 % 0.00 in
03:55 50.5 °F 48.6 °F 30.08 in Calm     93 % 0.00 in
04:00 50.4 °F 48.5 °F 30.08 in Calm     93 % 0.00 in
04:05 50.2 °F 48.3 °F 30.09 in Calm     93 % 0.00 in
04:10 50.1 °F 48.2 °F 30.08 in Calm     93 % 0.00 in
04:15 49.8 °F 47.9 °F 30.08 in Calm     93 % 0.00 in
04:20 49.7 °F 47.8 °F 30.07 in Calm     93 % 0.00 in
04:25 49.6 °F 47.9 °F 30.07 in Calm     94 % 0.00 in
04:30 49.5 °F 47.8 °F 30.08 in Calm     94 % 0.00 in
04:35 49.4 °F 47.7 °F 30.08 in Calm     94 % 0.00 in
04:40 49.3 °F 47.6 °F 30.08 in Calm     94 % 0.00 in
04:45 49.3 °F 47.6 °F 30.09 in Calm     94 % 0.00 in
04:50 49.3 °F 47.6 °F 30.09 in Calm     94 % 0.00 in
04:55 49.3 °F 47.6 °F 30.09 in Calm     94 % 0.00 in
05:01 49.5 °F 48.1 °F 30.08 in Calm     95 % 0.00 in
05:06 49.6 °F 48.2 °F 30.08 in East 1.2 mph   95 % 0.00 in
05:11 49.7 °F 48.0 °F 30.08 in East 1.2 mph   94 % 0.00 in
05:16 49.7 °F 48.0 °F 30.08 in Calm     94 % 0.00 in
05:21 49.7 °F 48.0 °F 30.07 in East 1.2 mph   94 % 0.00 in
05:26 49.8 °F 48.1 °F 30.07 in Calm     94 % 0.00 in
05:31 49.8 °F 48.1 °F 30.08 in Calm     94 % 0.00 in
05:36 49.9 °F 48.2 °F 30.08 in Calm     94 % 0.00 in
05:41 49.9 °F 48.2 °F 30.07 in Calm     94 % 0.00 in
05:46 50.0 °F 48.3 °F 30.08 in Calm     94 % 0.00 in
05:48 50.1 °F 48.4 °F 30.08 in Calm     94 % 0.00 in
05:53 50.1 °F 48.2 °F 30.08 in East 1.2 mph 1.2 mph 93 % 0.00 in
05:58 50.0 °F 48.1 °F 30.09 in Calm     93 % 0.00 in
06:03 50.0 °F 48.1 °F 30.09 in Calm     93 % 0.00 in
06:08 49.9 °F 48.0 °F 30.09 in Calm     93 % 0.00 in
06:13 50.0 °F 48.3 °F 30.09 in Calm     94 % 0.00 in
06:18 50.2 °F 48.3 °F 30.09 in Calm     93 % 0.00 in
06:23 50.0 °F 48.1 °F 30.08 in East 1.2 mph 1.2 mph 93 % 0.00 in
06:28 49.7 °F 47.5 °F 30.08 in Calm     92 % 0.00 in
06:33 49.5 °F 47.6 °F 30.08 in Calm     93 % 0.00 in
06:38 49.5 °F 47.6 °F 30.08 in Calm     93 % 0.00 in
06:43 49.4 °F 47.5 °F 30.08 in Calm     93 % 0.00 in
06:48 49.5 °F 47.8 °F 30.08 in Calm     94 % 0.00 in
06:53 50.0 °F 48.3 °F 30.09 in East 1.2 mph   94 % 0.00 in
06:58 50.4 °F 48.7 °F 30.09 in East 1.0 mph 1.0 mph 94 % 0.00 in
07:03 50.6 °F 48.9 °F 30.09 in Calm     94 % 0.00 in
07:09 50.4 °F 48.5 °F 30.09 in Calm     93 % 0.00 in
07:14 50.3 °F 48.6 °F 30.09 in Calm     94 % 0.00 in
07:19 50.4 °F 48.7 °F 30.08 in Calm     94 % 0.00 in
07:24 50.7 °F 49.0 °F 30.08 in Calm     94 % 0.00 in
07:29 51.4 °F 49.7 °F 30.08 in Calm     94 % 0.00 in
07:34 51.7 °F 50.0 °F 30.08 in Calm     94 % 0.00 in
07:39 52.0 °F 50.0 °F 30.08 in East 1.2 mph 1.2 mph 93 % 0.00 in
07:44 52.6 °F 50.6 °F 30.08 in Calm     93 % 0.00 in
07:49 52.8 °F 50.5 °F 30.09 in Calm     92 % 0.00 in
07:50 52.9 °F 50.6 °F 30.09 in Calm     92 % 0.00 in
07:55 53.1 °F 50.8 °F 30.10 in Calm     92 % 0.00 in
08:00 53.7 °F 51.7 °F 30.09 in Calm     93 % 0.00 in
08:05 54.7 °F 52.4 °F 30.09 in Calm     92 % 0.00 in
08:10 55.5 °F 52.6 °F 30.09 in Calm     90 % 0.00 in
08:15 56.2 °F 53.0 °F 30.09 in Calm     89 % 0.00 in
08:20 56.9 °F 53.4 °F 30.09 in Calm     88 % 0.00 in
08:25 57.6 °F 54.1 °F 30.10 in Calm     88 % 0.00 in
08:30 58.3 °F 54.1 °F 30.10 in Calm     86 % 0.00 in
08:35 58.5 °F 54.0 °F 30.10 in ESE 1.2 mph   85 % 0.00 in
08:40 58.8 °F 54.3 °F 30.10 in Calm     85 % 0.00 in
08:45 59.2 °F 54.4 °F 30.09 in ESE 1.2 mph 1.2 mph 84 % 0.00 in
08:50 59.5 °F 54.7 °F 30.09 in ESE 1.2 mph   84 % 0.00 in
08:55 60.1 °F 55.2 °F 30.09 in ESE 1.2 mph   84 % 0.00 in
09:00 60.8 °F 54.9 °F 30.10 in SSE 1.0 mph 1.0 mph 81 % 0.00 in
09:05 61.5 °F 55.3 °F 30.10 in SE 2.3 mph 2.3 mph 80 % 0.00 in
09:11 62.1 °F 55.5 °F 30.10 in SE 1.2 mph   79 % 0.00 in
09:16 62.6 °F 55.3 °F 30.09 in SSE 1.2 mph   77 % 0.00 in
09:21 63.1 °F 55.8 °F 30.09 in Calm     77 % 0.00 in
09:26 63.6 °F 55.5 °F 30.09 in SSE 1.2 mph 1.2 mph 75 % 0.00 in
09:31 63.9 °F 54.7 °F 30.09 in SSE 3.5 mph 3.5 mph 72 % 0.00 in
09:36 64.0 °F 54.8 °F 30.09 in Calm     72 % 0.00 in
09:41 64.2 °F 55.0 °F 30.10 in ESE 3.5 mph 3.5 mph 72 % 0.00 in
09:46 64.3 °F 55.1 °F 30.10 in SE 2.3 mph 2.3 mph 72 % 0.00 in
09:51 64.6 °F 55.0 °F 30.10 in SE 1.2 mph 1.2 mph 71 % 0.00 in
09:56 64.7 °F 54.7 °F 30.10 in SSE 3.5 mph 3.5 mph 70 % 0.00 in
10:01 64.9 °F 55.3 °F 30.10 in SE 1.2 mph 1.2 mph 71 % 0.00 in
10:06 65.2 °F 55.2 °F 30.10 in SE 2.0 mph 2.0 mph 70 % 0.00 in
10:11 65.6 °F 55.5 °F 30.09 in NNW 1.2 mph   70 % 0.00 in
10:16 66.3 °F 56.2 °F 30.09 in Calm   0.1 mph 70 % 0.00 in
10:21 66.6 °F 55.7 °F 30.09 in West 1.2 mph   68 % 0.00 in
10:26 66.8 °F 56.3 °F 30.09 in South 1.2 mph 1.2 mph 69 % 0.00 in
10:31 67.0 °F 56.1 °F 30.08 in SSE 3.0 mph 3.0 mph 68 % 0.00 in
10:36 67.1 °F 56.6 °F 30.08 in Calm   0.3 mph 69 % 0.00 in
10:41 67.3 °F 56.0 °F 30.08 in Calm   0.1 mph 67 % 0.00 in
10:45 67.6 °F 56.2 °F 30.08 in ESE 2.3 mph 2.3 mph 67 % 0.00 in
10:50 67.9 °F 56.9 °F 30.07 in SE 3.0 mph 3.0 mph 68 % 0.00 in
10:55 68.2 °F 56.8 °F 30.07 in SE 3.5 mph 3.5 mph 67 % 0.00 in
11:00 68.7 °F 56.9 °F 30.07 in East 1.2 mph 1.2 mph 66 % 0.00 in
11:05 69.0 °F 56.3 °F 30.07 in NNW 2.3 mph 2.3 mph 64 % 0.00 in
11:10 69.2 °F 56.9 °F 30.07 in ESE 2.3 mph 2.3 mph 65 % 0.00 in
11:15 69.2 °F 56.5 °F 30.07 in West 1.2 mph   64 % 0.00 in
11:20 69.5 °F 57.2 °F 30.06 in East 2.3 mph 2.3 mph 65 % 0.00 in
11:25 69.5 °F 57.2 °F 30.06 in SE 3.5 mph 3.5 mph 65 % 0.00 in
11:30 69.4 °F 56.3 °F 30.05 in ENE 1.2 mph 1.2 mph 63 % 0.00 in
11:35 69.6 °F 56.9 °F 30.05 in Calm     64 % 0.00 in
11:40 69.7 °F 57.0 °F 30.05 in North 1.2 mph 1.2 mph 64 % 0.00 in
11:45 70.1 °F 57.8 °F 30.05 in ESE 1.0 mph 1.0 mph 65 % 0.00 in
11:50 70.2 °F 57.0 °F 30.04 in East 1.2 mph   63 % 0.00 in
11:55 70.4 °F 57.6 °F 30.04 in SE 1.2 mph   64 % 0.00 in
12:00 70.8 °F 58.0 °F 30.04 in SSW 1.2 mph 1.2 mph 64 % 0.00 in
12:06 70.6 °F 57.4 °F 30.04 in NW 1.2 mph 1.2 mph 63 % 0.00 in
12:10 70.7 °F 57.9 °F 30.03 in Calm     64 % 0.00 in
12:15 70.9 °F 58.5 °F 30.03 in SE 1.2 mph 1.2 mph 65 % 0.00 in
12:21 70.9 °F 57.7 °F 30.03 in WSW 1.0 mph 1.0 mph 63 % 0.00 in
12:26 71.1 °F 57.4 °F 30.03 in NNW 1.2 mph   62 % 0.00 in
12:31 71.0 °F 58.2 °F 30.02 in NNW 2.3 mph 2.3 mph 64 % 0.00 in
12:36 70.9 °F 58.1 °F 30.02 in Calm     64 % 0.00 in
12:41 71.2 °F 58.8 °F 30.02 in SSW 1.2 mph 1.2 mph 65 % 0.00 in
12:46 71.1 °F 57.9 °F 30.02 in WNW 1.2 mph 1.2 mph 63 % 0.00 in
12:51 70.7 °F 57.9 °F 30.01 in South 1.2 mph 1.2 mph 64 % 0.00 in
12:56 71.2 °F 58.4 °F 30.01 in NNW 1.2 mph 1.2 mph 64 % 0.00 in
13:01 71.3 °F 58.1 °F 30.01 in SE 1.0 mph   63 % 0.00 in
13:06 71.5 °F 58.7 °F 30.01 in Calm     64 % 0.00 in
13:11 71.9 °F 58.2 °F 30.01 in Calm     62 % 0.00 in
13:16 72.1 °F 58.8 °F 30.00 in SSW 2.3 mph 2.3 mph 63 % 0.00 in
13:21 72.2 °F 58.0 °F 30.00 in NW 2.3 mph 2.3 mph 61 % 0.00 in
13:26 72.1 °F 58.8 °F 30.00 in SSE 1.2 mph 1.2 mph 63 % 0.00 in
13:31 72.5 °F 58.7 °F 30.00 in SSE 2.3 mph 2.3 mph 62 % 0.00 in
13:36 72.4 °F 58.2 °F 30.00 in ESE 2.3 mph 2.3 mph 61 % 0.00 in
13:41 72.0 °F 57.8 °F 29.99 in SE 1.2 mph 1.2 mph 61 % 0.00 in
13:46 72.0 °F 58.3 °F 30.00 in SSE 1.0 mph   62 % 0.00 in
13:51 72.2 °F 58.0 °F 29.99 in Calm     61 % 0.00 in
13:56 72.2 °F 58.5 °F 29.99 in SE 1.2 mph 1.2 mph 62 % 0.00 in
14:01 72.4 °F 57.7 °F 29.99 in NNW 1.2 mph   60 % 0.00 in
14:06 72.3 °F 57.6 °F 29.99 in WNW 2.3 mph 2.3 mph 60 % 0.00 in
14:11 72.1 °F 58.4 °F 29.99 in WNW 1.0 mph 1.0 mph 62 % 0.00 in
14:16 71.9 °F 58.2 °F 29.99 in NW 2.3 mph 2.3 mph 62 % 0.00 in
14:21 71.8 °F 58.5 °F 29.99 in SE 1.2 mph 1.2 mph 63 % 0.00 in
14:26 71.8 °F 57.6 °F 29.99 in East 1.2 mph 1.2 mph 61 % 0.00 in
14:31 71.7 °F 58.0 °F 29.99 in SSW 1.2 mph 1.2 mph 62 % 0.00 in
14:36 71.6 °F 58.3 °F 29.99 in Calm     63 % 0.00 in
14:41 71.6 °F 57.9 °F 29.98 in Calm     62 % 0.00 in
14:46 71.5 °F 58.2 °F 29.98 in Calm     63 % 0.00 in
14:51 71.3 °F 58.5 °F 29.99 in SE 1.2 mph 1.2 mph 64 % 0.00 in
14:56 71.1 °F 58.3 °F 29.99 in Calm     64 % 0.00 in
15:01 71.0 °F 57.8 °F 29.99 in WNW 1.2 mph   63 % 0.00 in
15:06 70.8 °F 58.4 °F 29.99 in Calm     65 % 0.00 in
15:16 70.4 °F 58.1 °F 29.99 in Calm     65 % 0.00 in
15:21 70.2 °F 58.3 °F 29.99 in Calm     66 % 0.00 in
15:26 70.0 °F 57.7 °F 29.99 in Calm     65 % 0.00 in
15:31 69.9 °F 57.6 °F 29.98 in Calm     65 % 0.00 in
15:36 69.7 °F 57.8 °F 29.98 in Calm     66 % 0.00 in
15:41 69.5 °F 58.1 °F 29.98 in Calm     67 % 0.00 in
15:46 69.2 °F 58.2 °F 29.98 in Calm     68 % 0.00 in
15:51 68.9 °F 58.7 °F 29.98 in Calm     70 % 0.00 in
16:01 68.3 °F 58.5 °F 29.98 in Calm     71 % 0.00 in
16:11 67.8 °F 58.1 °F 29.98 in Calm     71 % 0.00 in
16:16 67.5 °F 57.8 °F 29.98 in Calm     71 % 0.00 in
16:21 67.2 °F 58.2 °F 29.98 in Calm     73 % 0.00 in
16:26 66.8 °F 58.2 °F 29.99 in Calm     74 % 0.00 in
16:31 66.4 °F 58.2 °F 29.99 in Calm     75 % 0.00 in
16:36 66.1 °F 57.9 °F 29.99 in Calm     75 % 0.00 in
16:41 65.9 °F 57.7 °F 29.99 in Calm     75 % 0.00 in
16:46 65.5 °F 57.4 °F 29.99 in Calm     75 % 0.00 in
16:51 65.0 °F 57.2 °F 29.99 in Calm     76 % 0.00 in
16:56 64.7 °F 57.3 °F 29.98 in Calm     77 % 0.00 in
17:01 64.4 °F 57.0 °F 29.98 in Calm     77 % 0.00 in
17:06 64.0 °F 57.0 °F 29.99 in Calm     78 % 0.00 in
17:11 63.5 °F 56.9 °F 29.99 in Calm     79 % 0.00 in
17:16 63.2 °F 57.3 °F 29.99 in Calm     81 % 0.00 in
17:21 62.8 °F 56.9 °F 29.99 in Calm     81 % 0.00 in
17:26 62.6 °F 57.0 °F 29.99 in Calm     82 % 0.00 in
17:31 62.3 °F 56.7 °F 29.99 in Calm     82 % 0.00 in
17:36 62.1 °F 56.9 °F 29.99 in Calm     83 % 0.00 in
17:41 61.9 °F 56.3 °F 29.99 in Calm     82 % 0.00 in
17:46 61.7 °F 56.5 °F 29.99 in Calm     83 % 0.00 in
17:51 61.4 °F 56.5 °F 29.99 in Calm     84 % 0.00 in
17:57 61.2 °F 56.3 °F 29.99 in Calm     84 % 0.00 in
18:07 60.8 °F 56.3 °F 29.99 in Calm     85 % 0.00 in
18:12 60.7 °F 56.2 °F 30.00 in Calm     85 % 0.00 in
18:17 60.6 °F 56.1 °F 29.99 in Calm     85 % 0.00 in
18:22 60.4 °F 55.9 °F 29.99 in Calm     85 % 0.00 in
18:27 60.3 °F 56.1 °F 29.99 in Calm     86 % 0.00 in
18:32 60.2 °F 56.0 °F 29.98 in Calm     86 % 0.00 in
18:37 60.1 °F 55.9 °F 29.99 in Calm     86 % 0.00 in
18:42 59.9 °F 55.7 °F 29.98 in Calm     86 % 0.00 in
18:47 59.5 °F 55.3 °F 29.99 in Calm     86 % 0.00 in
18:52 59.2 °F 55.3 °F 29.99 in Calm     87 % 0.00 in
18:57 58.8 °F 54.9 °F 29.99 in Calm     87 % 0.00 in
19:02 58.4 °F 54.5 °F 29.99 in Calm     87 % 0.00 in
19:07 58.0 °F 54.2 °F 29.99 in Calm     87 % 0.00 in
19:13 57.5 °F 54.0 °F 29.99 in Calm     88 % 0.00 in
19:18 57.1 °F 53.6 °F 29.99 in Calm     88 % 0.00 in
19:22 56.9 °F 53.7 °F 29.99 in Calm     89 % 0.00 in
19:23 56.8 °F 53.3 °F 29.99 in Calm     88 % 0.00 in
19:24 56.7 °F 53.5 °F 29.99 in Calm     89 % 0.00 in
19:28 56.5 °F 53.6 °F 30.00 in Calm     90 % 0.00 in
19:33 56.3 °F 53.4 °F 30.00 in Calm     90 % 0.00 in
19:38 56.1 °F 53.5 °F 30.00 in Calm     91 % 0.00 in
19:43 56.0 °F 53.4 °F 30.00 in Calm     91 % 0.00 in
19:48 56.0 °F 53.4 °F 30.00 in Calm     91 % 0.00 in
19:53 56.0 °F 53.4 °F 30.01 in Calm     91 % 0.00 in
19:58 55.9 °F 53.3 °F 30.01 in Calm     91 % 0.00 in
20:08 56.3 °F 54.0 °F 30.01 in SW 1.2 mph   92 % 0.00 in
20:18 56.6 °F 54.0 °F 30.01 in West 1.2 mph   91 % 0.00 in
20:23 56.7 °F 54.1 °F 30.02 in Calm     91 % 0.00 in
20:28 56.7 °F 53.8 °F 30.02 in Calm     90 % 0.00 in
20:34 56.8 °F 53.9 °F 30.02 in West 1.2 mph   90 % 0.00 in
20:39 56.9 °F 54.0 °F 30.03 in West 1.2 mph 1.2 mph 90 % 0.00 in
20:44 57.0 °F 54.1 °F 30.03 in West 1.2 mph   90 % 0.00 in
20:49 57.2 °F 54.0 °F 30.03 in Calm     89 % 0.00 in
20:54 57.2 °F 54.0 °F 30.04 in Calm     89 % 0.00 in
20:59 57.2 °F 54.0 °F 30.04 in Calm     89 % 0.00 in
21:04 57.2 °F 53.7 °F 30.04 in Calm     88 % 0.00 in
21:09 57.1 °F 53.6 °F 30.04 in Calm     88 % 0.00 in
21:14 57.0 °F 53.8 °F 30.04 in Calm     89 % 0.00 in
21:19 56.8 °F 53.3 °F 30.04 in Calm     88 % 0.00 in
21:24 56.5 °F 53.0 °F 30.04 in Calm     88 % 0.00 in
21:29 56.2 °F 53.0 °F 30.04 in Calm     89 % 0.00 in
21:34 56.1 °F 52.9 °F 30.04 in Calm     89 % 0.00 in
21:39 55.7 °F 52.8 °F 30.04 in Calm     90 % 0.00 in
21:44 55.5 °F 52.6 °F 30.04 in Calm     90 % 0.00 in
21:49 55.5 °F 52.6 °F 30.03 in Calm     90 % 0.00 in
21:54 55.4 °F 52.5 °F 30.03 in Calm     90 % 0.00 in
21:59 55.2 °F 52.3 °F 30.03 in Calm     90 % 0.00 in
22:04 54.9 °F 52.0 °F 30.03 in Calm     90 % 0.00 in
22:09 54.6 °F 52.0 °F 30.03 in Calm     91 % 0.00 in
22:14 54.3 °F 51.7 °F 30.03 in Calm     91 % 0.00 in
22:19 54.0 °F 51.4 °F 30.04 in Calm     91 % 0.00 in
22:24 53.7 °F 51.1 °F 30.03 in Calm     91 % 0.00 in
22:29 53.4 °F 50.8 °F 30.03 in Calm     91 % 0.00 in
22:34 53.2 °F 50.6 °F 30.03 in Calm     91 % 0.00 in
22:39 53.0 °F 50.7 °F 30.03 in Calm     92 % 0.00 in
22:44 52.9 °F 50.6 °F 30.03 in Calm     92 % 0.00 in
22:49 52.7 °F 50.4 °F 30.03 in Calm     92 % 0.00 in
22:54 52.6 °F 50.3 °F 30.03 in Calm     92 % 0.00 in
22:59 52.6 °F 50.6 °F 30.03 in Calm     93 % 0.00 in
23:04 52.8 °F 50.8 °F 30.03 in Calm     93 % 0.00 in
23:09 52.9 °F 50.9 °F 30.03 in Calm     93 % 0.00 in
23:14 53.1 °F 51.4 °F 30.03 in Calm     94 % 0.00 in
23:19 53.0 °F 51.0 °F 30.03 in Calm     93 % 0.00 in
23:24 52.9 °F 50.9 °F 30.03 in Calm     93 % 0.00 in
23:29 52.9 °F 51.2 °F 30.03 in Calm     94 % 0.00 in
23:34 53.1 °F 51.4 °F 30.03 in Calm     94 % 0.00 in
23:39 53.3 °F 51.6 °F 30.03 in Calm     94 % 0.00 in
23:44 53.4 °F 51.4 °F 30.03 in Calm     93 % 0.00 in
23:50 53.4 °F 51.4 °F 30.03 in Calm     93 % 0.00 in
23:55 52.9 °F 50.6 °F 30.04 in Calm     92 % 0.00 in
Park Place, Exeter, Tulare County, California, USA
Compliments of Weather Underground - 2.75 mb